SEBI

Registration No.

INH000000305

Ip Address Lookup

So far visitors:

customizable counter

TRIAL

TRIAL

SEND SMS FOR TRIAL

EQUITY - COMMODITY OR BOTH

TO

 09920033678

AND GET TRIAL

 

SEBI Registration No.: INH000000305 *****

* Commodity: 9500/month * Equity: 6000/month


* Gold Package: 7000 * Gold-Silver Package: 8100
*Crude-NG-Copper-Nickel Package: 6000


To See Past Performance, Click Here

For TRIAL / Registration,

click here

Past Performance >> Commodity
 
Search
 
Entry Start Date Entry End Date
Exit Start Date Exit End Date
Scrip Name Contract
Package
 

Packages: Precious Metals - Energy and Base Metals - Profit is calculated on basis of 1 lot per call

Package: Equity calls: Profit is calculated as follows:

1. If the scrip is in F & O then 1 lot is counted otherwise

2. Trade of Rs.1,50,000/- per call is counted.

 
Page: ( 1 2 3 4 5 6 7 8 9 10 11 12 13 14 15 16 17 18 19 20 21 22 23 24 25 26 27 28 29 30 31 32 33 34 35 36 37 38 39 40 41 42 43 44 45 46 47 48 49 50 51 52 53 54 55 56 57 58 59 60 61 62 63 64 65 66 67 68 69 70 71 ) [Current Page: 55]
Displaying 4051 to 4125   Calls
Entry Date Type Scrip Entry Price (Rs) T1
(Rs)
T2
(Rs)
T3
(Rs)
Stop Loss
(Rs)
Exit Date Exit Rate
(Rs)
Profit
(Rs)
 
18-08-14 Buy Above ACC 1500 1520 1535 1550 1475 20-08-14 1549 12250.00 More
14-08-14 Buy Above M&M 1325 1335 1345 1360 1310 19-08-14 1360 8750.00 More
14-08-14 Sell Below RELIANCE CAPITAL 545 540 535 530 551 14-08-14 540 5000.00 More
13-08-14 Sell Below Hindalco 185 181 178 --- 188 13-08-14 178 14000.00 More
13-08-14 Sell Below BOB 900 890 880 870 910 14-08-14 870 15000.00 More
11-08-14 Sell Below PNB 910 900 890 880 925 12-08-14 925 -7500.00 More
08-08-14 Sell Below ACC 1460 1445 1425 1410 1480 08-08-14 1434 6500.00 More
07-08-14 Buy Above IDEA 159 162 165 --- 156 11-08-14 162 6000.00 More
06-08-14 Buy Above AURO PHARMA 745 755 760 770 735 06-08-14 735 -5000.00 More
04-08-14 Sell Below HDFC 1035 1025 1015 1000 1050 05-08-14 1017 4500.00 More
04-08-14 Buy Above Arvind 228 230 232 235 226 04-08-14 234.50 13000.00 More
01-08-14 Buy Above Tata Steel 560 565 570 --- 554 01-08-14 568 8000.00 More
01-08-14 Sell Below SBI 2430 2410 2390 2370 2455 01-08-14 2455 -3125.00 More
30-07-14 Buy Above TCS 2600 2625 2650 2670 2580 30-07-14 2580 -2500.00 More
28-07-14 Sell Below BIOCON 470 462 455 450 482 30-07-14 460 5000.00 More
25-07-14 Buy Above ITC 357.50 362 365 370 353 30-07-14 364 6500.00 More
24-07-14 Buy Above Tata Steel 559 563 568 575 555 25-07-14 575 16000.00 More
23-07-14 Buy Above ITC 354 357 360 365 351 23-07-14 351 -3000.00 More
23-07-14 Sell Below VOLTAS 202 198 194 --- 205 24-07-14 194.50 15000.00 More
22-07-14 Buy Above Godrej Indsutries 345 350 355 --- 341 23-07-14 341 -4000.00 More
21-07-14 Buy Above HDFC 993 1005 1015 1030 982 22-07-14 1030 9250.00 More
21-07-14 Buy Above ICICI Bank 1490 1505 1525 1540 1475 22-07-14 1475 -3750.00 More
18-07-14 Buy Above Tata Steel 560 565 570 575 552 21-07-14 573 13000.00 More
17-07-14 Buy Above Arvind 228 231 235 --- 225 18-07-14 234 12000.00 More
17-07-14 Buy Above DLF 227 231 235 --- 223 17-07-14 223 -8000.00 More
16-07-14 Buy Above Hindalco 178 181 184 187 175 17-07-14 187 18000.00 More
16-07-14 Sell Below 1625 1605 1590 --- 1640 16-07-14 1640 -3750.00 More
15-07-14 Buy Above PFC 290 295 300 --- 282 16-07-14 300 20000.00 More
15-07-14 Buy Above DLF 210 215 220 --- 206 16-07-14 220 20000.00 More
14-07-14 Buy Above HDFC 1000 1010 1020 1030 990 14-07-14 1015 3750.00 More
11-07-14 Buy Above RELIANCE CAPITAL 610 618 622 630 602 11-07-14 602 -8000.00 More
11-07-14 Sell Below ICICI Bank 1380 1370 1360 1340 1392 14-07-14 1342 9500.00 More
09-07-14 Sell Below ADANI ENT 443 433 423 412 455 09-07-14 426 17000.00 More
08-07-14 Sell Below BOB 868 860 845 --- 880 08-07-14 845 11500.00 More
08-07-14 Sell Below NMDC 182 178 175 --- 184 08-07-14 175 14000.00 More
07-07-14 Buy Above RECL 381 386 390 395 375 08-07-14 375 -6000.00 More
04-07-14 Sell Below Tata Steel 530 525 520 515 535 04-07-14 525 5000.00 More
03-07-14 Buy Above Adani Power 66.50 68 70 72 64 03-07-14 67.65 9200.00 More
02-07-14 Buy Above Hindalco 178 181 185 --- 174 03-07-14 181 6000.00 More
02-07-14 Buy Above Maruti 2605 2630 2650 2670 2575 02-07-14 2670 8125.00 More
01-07-14 Buy Above 1715 1735 1750 1780 1705 02-07-14 1774 14750.00 More
01-07-14 Buy Above NTPC 158 161 165 --- 155 02-07-14 161 6000.00 More
30-06-14 Buy Above TECH MAH 2135 2160 2180 2200 2100 30-06-14 2156 2625.00 More
27-06-14 Sell Below ICICI Bank 1410 1400 1390 1380 1421 27-06-14 1391 4750.00 More
25-06-14 Buy Above CESC 639 650 660 --- 630 25-06-14 630 -4500.00 More
25-06-14 Buy Above NTPC 156.50 159 162 --- 154 26-06-14 154 -5000.00 More
24-06-14 Buy Above Bharti Airtel 345 348 350 355 342 24-06-14 342 -3000.00 More
24-06-14 Buy Above VOLTAS 216 219 222 --- 214 24-06-14 222 12000.00 More
23-06-14 Buy Above ZEEL 288 294 298 305 281 26-06-14 293.50 5500.00 More
23-06-14 Buy Above Petronet LNG 170 174 177 180 166 24-06-14 180 20000.00 More
20-06-14 Buy Above 327 331 335 340 323 20-06-14 323 -8000.00 More
18-06-14 Buy Above Tata Steel 534 539 545 --- 527 18-06-14 541 7000.00 More
18-06-14 Buy Above Coal India 402 407 411 --- 397 18-06-14 397 -5000.00 More
17-06-14 Buy Above GRASIM 3610 3650 3680 3720 3570 17-06-14 3570 -5000.00 More
17-06-14 Buy Above LICHSGFIN 313 317 323 --- 309 17-06-14 323 10000.00 More
16-06-14 Sell Below Axis Bank 1800 1780 1770 1750 1830 16-06-14 1755 11250.00 More
13-06-14 Buy Above HDFC 985 995 1000 1010 970 16-06-14 970 -3750.00 More
13-06-14 Buy Above SUN PHARMA 635 645 655 665 625 17-06-14 655 10000.00 More
12-06-14 Buy Above TCS 2215 2235 2250 2270 2190 12-06-14 2190 -3125.00 More
12-06-14 Buy Above Havells India 1175 1190 1200 1215 1160 12-06-14 1198 5750.00 More
11-06-14 Buy JSWSteel 1320 1335 1345 1355 1300 11-06-14 1331 2750.00 More
09-06-14 Buy Above TataComm 377 385 390 395 370 09-06-14 390 13000.00 More
09-06-14 Buy Above HindZinc 176 180 185 190 171 09-06-14 184 16000.00 More
06-06-14 Buy Above SAIL 107.50 110 112 115 104 09-06-14 113.50 24000.00 More
06-06-14 Buy Above Axis Bank 1950 1965 1975 1985 1935 06-06-14 1975 6250.00 More
05-06-14 Buy Above Century Textiles 540 547 550 555 534 06-06-14 555 15000.00 More
04-06-14 Buy Above DLF 222 226 230 --- 217 05-06-14 217 -10000.00 More
04-06-14 Buy Above GRASIM 3350 3400 3420 3450 3290 05-06-14 3425 9375.00 More
03-06-14 Buy Above Ambuja Cement 225 229 232 235 220 05-06-14 235 20000.00 More
03-06-14 Buy Above RELIANCE CAPITAL 591 600 605 --- 586 03-06-14 586 -5000.00 More
02-06-14 Buy Above ACC 1350 1360 1370 1390 1335 02-06-14 1390 10000.00 More
30-05-14 Buy Above Dr Reddy 2405 2425 2450 2470 2380 30-05-14 2465 7500.00 More
30-05-14 Sell Below INFY 2940 2910 2890 2850 2985 02-06-14 2985 -5625.00 More
29-05-14 Sell Below ZEEL 268 265 260 --- 272 29-05-14 260 8000.00 More
29-05-14 Sell Below JINDAL STEEL 305 300 295 --- 311 29-05-14 295 10000.00 More
Page wise profit 450700.00 Rs
Profit 17012557.75 Rs
TRIAL

TRIAL

SEND SMS FOR TRIAL

EQUITY - COMMODITY OR BOTH

TO

 09920033678

AND GET TRIAL